Terminal Aerodrome Forecast
Issued by NWS

Home | Current Version | Previous Version | Text Only | Print | Product List | Glossary On
Versions: 1 2 3 4 5 6 7 8 9 10 11 12 13 14
000
FTUS42 KGSP 230540
TAFGMU
TAF
KGMU 230540Z 2306/2406 06006KT P6SM -SHRA OVC060
     FM230900 05009KT P6SM OVC008
      TEMPO 2309/2313 4SM SHRA OVC004
     FM231300 05011KT 5SM -SHRA BR OVC007
     FM231900 05013G20KT 2SM +SHRA OVC003 PROB30 2320/2323 3/4SM
      TSRA OVC003CB
     FM240300 04015G23KT 3SM -SHRA OVC003=

USA.gov is the U.S. government's official web portal to all federal, state and local government web resources and services.